sensor_id;sensor_type;location;lat;lon;timestamp;P1;durP1;ratioP1;P2;durP2;ratioP2
19739;SDS011;10027;51.066;13.768;2022-11-04T00:01:52;7.97;;;4.97;;
19739;SDS011;10027;51.066;13.768;2022-11-04T00:04:21;8.97;;;5.17;;
19739;SDS011;10027;51.066;13.768;2022-11-04T00:06:48;9.93;;;5.50;;
19739;SDS011;10027;51.066;13.768;2022-11-04T00:09:17;8.27;;;5.10;;
19739;SDS011;10027;51.066;13.768;2022-11-04T00:11:44;8.97;;;5.23;;
19739;SDS011;10027;51.066;13.768;2022-11-04T00:14:30;9.57;;;5.27;;
19739;SDS011;10027;51.066;13.768;2022-11-04T00:16:58;8.23;;;5.30;;
19739;SDS011;10027;51.066;13.768;2022-11-04T00:19:44;9.23;;;5.73;;
19739;SDS011;10027;51.066;13.768;2022-11-04T00:22:30;6.93;;;5.37;;
19739;SDS011;10027;51.066;13.768;2022-11-04T00:25:16;11.10;;;5.17;;
19739;SDS011;10027;51.066;13.768;2022-11-04T00:28:07;9.27;;;5.47;;
19739;SDS011;10027;51.066;13.768;2022-11-04T00:30:55;10.43;;;5.87;;
19739;SDS011;10027;51.066;13.768;2022-11-04T00:33:23;10.53;;;5.27;;
19739;SDS011;10027;51.066;13.768;2022-11-04T00:35:53;11.40;;;6.37;;
19739;SDS011;10027;51.066;13.768;2022-11-04T00:38:22;10.33;;;6.40;;
19739;SDS011;10027;51.066;13.768;2022-11-04T00:40:49;10.13;;;6.10;;
19739;SDS011;10027;51.066;13.768;2022-11-04T00:43:16;10.67;;;6.37;;
19739;SDS011;10027;51.066;13.768;2022-11-04T00:45:43;9.10;;;6.33;;
19739;SDS011;10027;51.066;13.768;2022-11-04T00:48:10;10.80;;;6.37;;
19739;SDS011;10027;51.066;13.768;2022-11-04T00:50:37;10.90;;;6.20;;
19739;SDS011;10027;51.066;13.768;2022-11-04T00:53:04;10.40;;;6.17;;
19739;SDS011;10027;51.066;13.768;2022-11-04T00:55:32;12.13;;;6.77;;
19739;SDS011;10027;51.066;13.768;2022-11-04T00:57:59;11.13;;;6.40;;
19739;SDS011;10027;51.066;13.768;2022-11-04T01:00:26;12.37;;;6.53;;
19739;SDS011;10027;51.066;13.768;2022-11-04T01:02:54;10.73;;;6.50;;
19739;SDS011;10027;51.066;13.768;2022-11-04T01:05:22;11.83;;;6.33;;
19739;SDS011;10027;51.066;13.768;2022-11-04T01:07:49;15.37;;;6.63;;
19739;SDS011;10027;51.066;13.768;2022-11-04T01:10:16;12.60;;;7.23;;
19739;SDS011;10027;51.066;13.768;2022-11-04T01:12:43;11.23;;;7.27;;
19739;SDS011;10027;51.066;13.768;2022-11-04T01:15:10;9.70;;;7.10;;
19739;SDS011;10027;51.066;13.768;2022-11-04T01:17:38;10.57;;;6.67;;
19739;SDS011;10027;51.066;13.768;2022-11-04T01:20:05;13.17;;;7.90;;
19739;SDS011;10027;51.066;13.768;2022-11-04T01:22:32;13.17;;;7.67;;
19739;SDS011;10027;51.066;13.768;2022-11-04T01:24:59;13.17;;;7.93;;
19739;SDS011;10027;51.066;13.768;2022-11-04T01:27:26;12.20;;;8.00;;
19739;SDS011;10027;51.066;13.768;2022-11-04T01:29:53;13.83;;;7.47;;
19739;SDS011;10027;51.066;13.768;2022-11-04T01:32:20;12.13;;;7.90;;
19739;SDS011;10027;51.066;13.768;2022-11-04T01:34:47;16.97;;;9.00;;
19739;SDS011;10027;51.066;13.768;2022-11-04T01:37:14;14.07;;;8.27;;
19739;SDS011;10027;51.066;13.768;2022-11-04T01:39:41;14.03;;;8.80;;
19739;SDS011;10027;51.066;13.768;2022-11-04T01:42:11;17.20;;;8.87;;
19739;SDS011;10027;51.066;13.768;2022-11-04T01:44:49;16.23;;;8.73;;
19739;SDS011;10027;51.066;13.768;2022-11-04T01:49:51;14.50;;;9.17;;
19739;SDS011;10027;51.066;13.768;2022-11-04T01:52:24;20.90;;;9.60;;
19739;SDS011;10027;51.066;13.768;2022-11-04T01:54:52;15.87;;;9.33;;
19739;SDS011;10027;51.066;13.768;2022-11-04T01:57:24;17.63;;;9.87;;
19739;SDS011;10027;51.066;13.768;2022-11-04T01:59:53;17.53;;;10.30;;
19739;SDS011;10027;51.066;13.768;2022-11-04T02:02:20;17.30;;;9.50;;
19739;SDS011;10027;51.066;13.768;2022-11-04T02:04:48;16.53;;;10.10;;
19739;SDS011;10027;51.066;13.768;2022-11-04T02:07:15;16.13;;;9.73;;
19739;SDS011;10027;51.066;13.768;2022-11-04T02:09:42;17.53;;;10.10;;
19739;SDS011;10027;51.066;13.768;2022-11-04T02:12:09;16.73;;;10.17;;
19739;SDS011;10027;51.066;13.768;2022-11-04T02:14:55;17.07;;;10.17;;
19739;SDS011;10027;51.066;13.768;2022-11-04T02:17:32;16.87;;;9.97;;
19739;SDS011;10027;51.066;13.768;2022-11-04T02:25:25;17.47;;;10.00;;
19739;SDS011;10027;51.066;13.768;2022-11-04T02:30:27;16.50;;;10.17;;
19739;SDS011;10027;51.066;13.768;2022-11-04T02:33:02;17.70;;;10.37;;
19739;SDS011;10027;51.066;13.768;2022-11-04T02:40:37;16.93;;;10.63;;
19739;SDS011;10027;51.066;13.768;2022-11-04T02:43:18;15.77;;;9.90;;
19739;SDS011;10027;51.066;13.768;2022-11-04T02:45:48;16.23;;;10.43;;
19739;SDS011;10027;51.066;13.768;2022-11-04T02:48:21;21.30;;;11.13;;
19739;SDS011;10027;51.066;13.768;2022-11-04T02:50:54;16.27;;;10.43;;
19739;SDS011;10027;51.066;13.768;2022-11-04T02:53:26;17.20;;;10.43;;
19739;SDS011;10027;51.066;13.768;2022-11-04T02:55:55;17.90;;;10.73;;
19739;SDS011;10027;51.066;13.768;2022-11-04T02:58:28;17.13;;;11.03;;
19739;SDS011;10027;51.066;13.768;2022-11-04T03:00:56;20.20;;;11.23;;
19739;SDS011;10027;51.066;13.768;2022-11-04T03:03:25;18.63;;;11.60;;
19739;SDS011;10027;51.066;13.768;2022-11-04T03:05:53;22.90;;;11.30;;
19739;SDS011;10027;51.066;13.768;2022-11-04T03:08:26;19.90;;;11.07;;
19739;SDS011;10027;51.066;13.768;2022-11-04T03:11:00;20.93;;;11.83;;
19739;SDS011;10027;51.066;13.768;2022-11-04T03:13:31;19.60;;;11.40;;
19739;SDS011;10027;51.066;13.768;2022-11-04T03:16:00;19.73;;;11.27;;
19739;SDS011;10027;51.066;13.768;2022-11-04T03:18:33;20.50;;;10.93;;
19739;SDS011;10027;51.066;13.768;2022-11-04T03:21:04;16.87;;;11.07;;
19739;SDS011;10027;51.066;13.768;2022-11-04T03:23:33;23.40;;;11.40;;
19739;SDS011;10027;51.066;13.768;2022-11-04T03:26:03;20.63;;;11.33;;
19739;SDS011;10027;51.066;13.768;2022-11-04T03:28:36;19.53;;;10.97;;
19739;SDS011;10027;51.066;13.768;2022-11-04T03:31:07;17.13;;;10.57;;
19739;SDS011;10027;51.066;13.768;2022-11-04T03:33:40;18.70;;;11.27;;
19739;SDS011;10027;51.066;13.768;2022-11-04T03:36:08;18.43;;;10.67;;
19739;SDS011;10027;51.066;13.768;2022-11-04T03:38:36;19.87;;;11.90;;
19739;SDS011;10027;51.066;13.768;2022-11-04T03:41:06;19.07;;;11.87;;
19739;SDS011;10027;51.066;13.768;2022-11-04T03:43:36;16.00;;;10.73;;
19739;SDS011;10027;51.066;13.768;2022-11-04T03:46:04;14.87;;;10.53;;
19739;SDS011;10027;51.066;13.768;2022-11-04T03:48:31;17.33;;;11.47;;
19739;SDS011;10027;51.066;13.768;2022-11-04T03:50:58;19.67;;;11.50;;
19739;SDS011;10027;51.066;13.768;2022-11-04T03:53:26;20.57;;;11.90;;
19739;SDS011;10027;51.066;13.768;2022-11-04T03:56:05;16.47;;;11.00;;
19739;SDS011;10027;51.066;13.768;2022-11-04T04:04:00;18.23;;;11.10;;
19739;SDS011;10027;51.066;13.768;2022-11-04T04:06:31;23.20;;;11.67;;
19739;SDS011;10027;51.066;13.768;2022-11-04T04:09:00;17.23;;;10.97;;
19739;SDS011;10027;51.066;13.768;2022-11-04T04:11:37;17.23;;;10.73;;
19739;SDS011;10027;51.066;13.768;2022-11-04T04:14:11;19.07;;;10.97;;
19739;SDS011;10027;51.066;13.768;2022-11-04T04:16:58;17.53;;;11.03;;
19739;SDS011;10027;51.066;13.768;2022-11-04T04:19:26;17.73;;;11.33;;
19739;SDS011;10027;51.066;13.768;2022-11-04T04:22:05;21.57;;;11.07;;
19739;SDS011;10027;51.066;13.768;2022-11-04T04:24:34;21.83;;;11.43;;
19739;SDS011;10027;51.066;13.768;2022-11-04T04:27:20;19.80;;;11.37;;
19739;SDS011;10027;51.066;13.768;2022-11-04T04:29:59;16.63;;;10.97;;
19739;SDS011;10027;51.066;13.768;2022-11-04T04:32:27;19.53;;;11.20;;
19739;SDS011;10027;51.066;13.768;2022-11-04T04:34:55;20.80;;;11.03;;
19739;SDS011;10027;51.066;13.768;2022-11-04T04:37:59;21.23;;;11.33;;
19739;SDS011;10027;51.066;13.768;2022-11-04T04:40:58;17.57;;;11.00;;
19739;SDS011;10027;51.066;13.768;2022-11-04T04:43:46;19.03;;;12.27;;
19739;SDS011;10027;51.066;13.768;2022-11-04T04:46:32;20.83;;;12.20;;
19739;SDS011;10027;51.066;13.768;2022-11-04T04:49:03;21.27;;;12.27;;
19739;SDS011;10027;51.066;13.768;2022-11-04T04:51:30;18.90;;;12.17;;
19739;SDS011;10027;51.066;13.768;2022-11-04T04:53:58;22.23;;;12.47;;
19739;SDS011;10027;51.066;13.768;2022-11-04T04:56:25;21.67;;;12.53;;
19739;SDS011;10027;51.066;13.768;2022-11-04T04:58:52;22.90;;;12.40;;
19739;SDS011;10027;51.066;13.768;2022-11-04T05:01:19;19.97;;;12.30;;
19739;SDS011;10027;51.066;13.768;2022-11-04T05:03:46;22.73;;;11.97;;
19739;SDS011;10027;51.066;13.768;2022-11-04T05:06:13;21.07;;;12.27;;
19739;SDS011;10027;51.066;13.768;2022-11-04T05:08:40;19.27;;;11.83;;
19739;SDS011;10027;51.066;13.768;2022-11-04T05:11:07;20.23;;;12.30;;
19739;SDS011;10027;51.066;13.768;2022-11-04T05:13:34;21.43;;;12.23;;
19739;SDS011;10027;51.066;13.768;2022-11-04T05:16:03;23.23;;;13.53;;
19739;SDS011;10027;51.066;13.768;2022-11-04T05:18:30;25.17;;;14.50;;
19739;SDS011;10027;51.066;13.768;2022-11-04T05:20:57;28.50;;;14.50;;
19739;SDS011;10027;51.066;13.768;2022-11-04T05:23:24;32.13;;;15.80;;
19739;SDS011;10027;51.066;13.768;2022-11-04T05:25:51;36.90;;;16.93;;
19739;SDS011;10027;51.066;13.768;2022-11-04T05:28:18;34.83;;;16.90;;
19739;SDS011;10027;51.066;13.768;2022-11-04T05:30:45;31.80;;;16.57;;
19739;SDS011;10027;51.066;13.768;2022-11-04T05:33:13;39.53;;;17.60;;
19739;SDS011;10027;51.066;13.768;2022-11-04T05:35:40;40.00;;;18.40;;
19739;SDS011;10027;51.066;13.768;2022-11-04T05:38:07;37.17;;;17.77;;
19739;SDS011;10027;51.066;13.768;2022-11-04T05:40:34;39.37;;;18.07;;
19739;SDS011;10027;51.066;13.768;2022-11-04T05:43:01;40.13;;;18.30;;
19739;SDS011;10027;51.066;13.768;2022-11-04T05:45:28;42.93;;;19.30;;
19739;SDS011;10027;51.066;13.768;2022-11-04T05:47:58;43.20;;;19.20;;
19739;SDS011;10027;51.066;13.768;2022-11-04T05:50:26;40.80;;;18.30;;
19739;SDS011;10027;51.066;13.768;2022-11-04T05:52:55;41.93;;;18.37;;
19739;SDS011;10027;51.066;13.768;2022-11-04T05:55:23;44.43;;;18.63;;
19739;SDS011;10027;51.066;13.768;2022-11-04T05:57:50;38.40;;;19.07;;
19739;SDS011;10027;51.066;13.768;2022-11-04T06:00:18;46.23;;;20.10;;
19739;SDS011;10027;51.066;13.768;2022-11-04T06:02:45;43.47;;;19.20;;
19739;SDS011;10027;51.066;13.768;2022-11-04T06:05:12;37.77;;;18.93;;
19739;SDS011;10027;51.066;13.768;2022-11-04T06:07:39;40.07;;;18.60;;
19739;SDS011;10027;51.066;13.768;2022-11-04T06:10:07;46.80;;;19.93;;
19739;SDS011;10027;51.066;13.768;2022-11-04T06:12:34;45.10;;;19.30;;
19739;SDS011;10027;51.066;13.768;2022-11-04T06:15:01;45.93;;;19.90;;
19739;SDS011;10027;51.066;13.768;2022-11-04T06:17:28;39.80;;;19.10;;
19739;SDS011;10027;51.066;13.768;2022-11-04T06:19:55;47.87;;;19.10;;
19739;SDS011;10027;51.066;13.768;2022-11-04T06:22:22;48.60;;;20.40;;
19739;SDS011;10027;51.066;13.768;2022-11-04T06:24:49;43.00;;;19.23;;
19739;SDS011;10027;51.066;13.768;2022-11-04T06:27:16;52.50;;;20.13;;
19739;SDS011;10027;51.066;13.768;2022-11-04T06:29:43;44.33;;;19.50;;
19739;SDS011;10027;51.066;13.768;2022-11-04T06:32:14;47.40;;;19.40;;
19739;SDS011;10027;51.066;13.768;2022-11-04T06:34:41;47.60;;;20.17;;
19739;SDS011;10027;51.066;13.768;2022-11-04T06:37:08;43.00;;;18.60;;
19739;SDS011;10027;51.066;13.768;2022-11-04T06:39:36;42.20;;;18.37;;
19739;SDS011;10027;51.066;13.768;2022-11-04T06:42:03;40.77;;;18.47;;
19739;SDS011;10027;51.066;13.768;2022-11-04T06:44:31;42.80;;;18.20;;
19739;SDS011;10027;51.066;13.768;2022-11-04T06:46:59;39.90;;;18.20;;
19739;SDS011;10027;51.066;13.768;2022-11-04T06:49:27;40.83;;;17.80;;
19739;SDS011;10027;51.066;13.768;2022-11-04T06:51:54;36.43;;;17.83;;
19739;SDS011;10027;51.066;13.768;2022-11-04T06:54:21;42.00;;;18.10;;
19739;SDS011;10027;51.066;13.768;2022-11-04T06:56:48;41.83;;;18.73;;
19739;SDS011;10027;51.066;13.768;2022-11-04T06:59:16;38.03;;;16.47;;
19739;SDS011;10027;51.066;13.768;2022-11-04T07:01:43;31.73;;;16.10;;
19739;SDS011;10027;51.066;13.768;2022-11-04T07:04:10;38.57;;;16.73;;
19739;SDS011;10027;51.066;13.768;2022-11-04T07:06:40;32.00;;;15.63;;
19739;SDS011;10027;51.066;13.768;2022-11-04T07:09:10;25.47;;;14.17;;
19739;SDS011;10027;51.066;13.768;2022-11-04T07:11:37;24.60;;;14.13;;
19739;SDS011;10027;51.066;13.768;2022-11-04T07:14:04;26.20;;;13.60;;
19739;SDS011;10027;51.066;13.768;2022-11-04T07:16:33;29.17;;;12.57;;
19739;SDS011;10027;51.066;13.768;2022-11-04T07:19:00;20.33;;;11.60;;
19739;SDS011;10027;51.066;13.768;2022-11-04T07:21:28;19.50;;;10.83;;
19739;SDS011;10027;51.066;13.768;2022-11-04T07:23:55;17.53;;;10.33;;
19739;SDS011;10027;51.066;13.768;2022-11-04T07:26:22;16.80;;;9.83;;
19739;SDS011;10027;51.066;13.768;2022-11-04T07:28:49;15.87;;;9.37;;
19739;SDS011;10027;51.066;13.768;2022-11-04T07:31:16;17.37;;;9.60;;
19739;SDS011;10027;51.066;13.768;2022-11-04T07:33:43;16.47;;;9.80;;
19739;SDS011;10027;51.066;13.768;2022-11-04T07:36:15;17.83;;;10.00;;
19739;SDS011;10027;51.066;13.768;2022-11-04T07:38:42;15.63;;;9.70;;
19739;SDS011;10027;51.066;13.768;2022-11-04T07:41:10;14.20;;;8.80;;
19739;SDS011;10027;51.066;13.768;2022-11-04T07:43:37;16.13;;;8.80;;
19739;SDS011;10027;51.066;13.768;2022-11-04T07:46:08;14.53;;;9.07;;
19739;SDS011;10027;51.066;13.768;2022-11-04T07:48:36;15.33;;;9.40;;
19739;SDS011;10027;51.066;13.768;2022-11-04T07:51:04;14.60;;;9.27;;
19739;SDS011;10027;51.066;13.768;2022-11-04T07:53:31;12.60;;;8.60;;
19739;SDS011;10027;51.066;13.768;2022-11-04T07:56:02;14.47;;;8.13;;
19739;SDS011;10027;51.066;13.768;2022-11-04T07:58:29;12.97;;;8.23;;
19739;SDS011;10027;51.066;13.768;2022-11-04T08:00:57;13.77;;;7.80;;
19739;SDS011;10027;51.066;13.768;2022-11-04T08:03:24;12.70;;;7.60;;
19739;SDS011;10027;51.066;13.768;2022-11-04T08:05:55;13.07;;;7.90;;
19739;SDS011;10027;51.066;13.768;2022-11-04T08:08:22;16.97;;;8.17;;
19739;SDS011;10027;51.066;13.768;2022-11-04T08:10:53;13.83;;;8.03;;
19739;SDS011;10027;51.066;13.768;2022-11-04T08:13:22;11.93;;;7.70;;
19739;SDS011;10027;51.066;13.768;2022-11-04T08:15:49;11.90;;;7.20;;
19739;SDS011;10027;51.066;13.768;2022-11-04T08:18:16;10.27;;;6.07;;
19739;SDS011;10027;51.066;13.768;2022-11-04T08:20:49;9.40;;;5.50;;
19739;SDS011;10027;51.066;13.768;2022-11-04T08:23:17;11.47;;;7.67;;
19739;SDS011;10027;51.066;13.768;2022-11-04T08:25:45;13.03;;;8.37;;
19739;SDS011;10027;51.066;13.768;2022-11-04T08:28:12;15.67;;;8.43;;
19739;SDS011;10027;51.066;13.768;2022-11-04T08:30:57;13.93;;;7.13;;
19739;SDS011;10027;51.066;13.768;2022-11-04T08:33:24;12.63;;;7.07;;
19739;SDS011;10027;51.066;13.768;2022-11-04T08:35:52;10.30;;;4.90;;
19739;SDS011;10027;51.066;13.768;2022-11-04T08:38:19;7.57;;;5.10;;
19739;SDS011;10027;51.066;13.768;2022-11-04T08:40:47;10.07;;;5.40;;
19739;SDS011;10027;51.066;13.768;2022-11-04T08:43:14;8.73;;;4.40;;
19739;SDS011;10027;51.066;13.768;2022-11-04T08:45:42;6.10;;;4.30;;
19739;SDS011;10027;51.066;13.768;2022-11-04T08:48:11;7.43;;;4.57;;
19739;SDS011;10027;51.066;13.768;2022-11-04T08:50:38;5.80;;;4.00;;
19739;SDS011;10027;51.066;13.768;2022-11-04T08:53:05;5.23;;;3.97;;
19739;SDS011;10027;51.066;13.768;2022-11-04T08:55:33;6.27;;;4.20;;
19739;SDS011;10027;51.066;13.768;2022-11-04T08:58:01;6.13;;;4.17;;
19739;SDS011;10027;51.066;13.768;2022-11-04T09:00:28;7.57;;;5.03;;
19739;SDS011;10027;51.066;13.768;2022-11-04T09:02:55;6.17;;;4.43;;
19739;SDS011;10027;51.066;13.768;2022-11-04T09:05:22;8.67;;;4.47;;
19739;SDS011;10027;51.066;13.768;2022-11-04T09:07:49;6.67;;;4.53;;
19739;SDS011;10027;51.066;13.768;2022-11-04T09:10:16;6.13;;;3.97;;
19739;SDS011;10027;51.066;13.768;2022-11-04T09:12:44;5.20;;;4.10;;
19739;SDS011;10027;51.066;13.768;2022-11-04T09:15:11;7.53;;;3.80;;
19739;SDS011;10027;51.066;13.768;2022-11-04T09:17:38;8.83;;;4.33;;
19739;SDS011;10027;51.066;13.768;2022-11-04T09:20:06;6.23;;;4.13;;
19739;SDS011;10027;51.066;13.768;2022-11-04T09:22:33;4.93;;;3.20;;
19739;SDS011;10027;51.066;13.768;2022-11-04T09:25:00;6.80;;;3.87;;
19739;SDS011;10027;51.066;13.768;2022-11-04T09:27:27;5.73;;;3.83;;
19739;SDS011;10027;51.066;13.768;2022-11-04T09:29:54;5.10;;;3.57;;
19739;SDS011;10027;51.066;13.768;2022-11-04T09:32:21;4.60;;;3.60;;
19739;SDS011;10027;51.066;13.768;2022-11-04T09:34:49;5.90;;;4.07;;
19739;SDS011;10027;51.066;13.768;2022-11-04T09:37:16;6.27;;;3.70;;
19739;SDS011;10027;51.066;13.768;2022-11-04T09:39:43;5.57;;;3.80;;
19739;SDS011;10027;51.066;13.768;2022-11-04T09:42:24;5.27;;;3.90;;
19739;SDS011;10027;51.066;13.768;2022-11-04T09:45:03;7.23;;;4.13;;
19739;SDS011;10027;51.066;13.768;2022-11-04T09:47:48;8.07;;;3.93;;
19739;SDS011;10027;51.066;13.768;2022-11-04T09:50:20;4.73;;;3.17;;
19739;SDS011;10027;51.066;13.768;2022-11-04T09:52:51;5.10;;;3.40;;
19739;SDS011;10027;51.066;13.768;2022-11-04T09:55:21;7.37;;;3.80;;
19739;SDS011;10027;51.066;13.768;2022-11-04T09:57:59;5.73;;;3.70;;
19739;SDS011;10027;51.066;13.768;2022-11-04T10:00:27;4.97;;;3.37;;
19739;SDS011;10027;51.066;13.768;2022-11-04T10:11:30;7.30;;;4.20;;
19739;SDS011;10027;51.066;13.768;2022-11-04T10:19:36;6.37;;;4.13;;
19739;SDS011;10027;51.066;13.768;2022-11-04T10:22:11;6.23;;;4.20;;
19739;SDS011;10027;51.066;13.768;2022-11-04T10:24:43;6.10;;;4.07;;
19739;SDS011;10027;51.066;13.768;2022-11-04T10:27:16;7.67;;;4.10;;
19739;SDS011;10027;51.066;13.768;2022-11-04T10:29:45;7.20;;;4.20;;
19739;SDS011;10027;51.066;13.768;2022-11-04T10:34:50;7.30;;;3.87;;
19739;SDS011;10027;51.066;13.768;2022-11-04T10:37:20;5.23;;;3.97;;
19739;SDS011;10027;51.066;13.768;2022-11-04T10:39:47;5.10;;;3.60;;
19739;SDS011;10027;51.066;13.768;2022-11-04T10:42:15;5.20;;;3.80;;
19739;SDS011;10027;51.066;13.768;2022-11-04T10:44:43;5.97;;;3.83;;
19739;SDS011;10027;51.066;13.768;2022-11-04T10:52:53;6.23;;;3.40;;
19739;SDS011;10027;51.066;13.768;2022-11-04T10:58:24;3.63;;;3.03;;
19739;SDS011;10027;51.066;13.768;2022-11-04T11:00:52;7.23;;;3.10;;
19739;SDS011;10027;51.066;13.768;2022-11-04T11:03:32;5.37;;;3.37;;
19739;SDS011;10027;51.066;13.768;2022-11-04T11:08:39;4.13;;;2.83;;
19739;SDS011;10027;51.066;13.768;2022-11-04T11:11:08;5.67;;;3.33;;
19739;SDS011;10027;51.066;13.768;2022-11-04T11:13:36;3.63;;;2.87;;
19739;SDS011;10027;51.066;13.768;2022-11-04T11:16:08;3.60;;;3.00;;
19739;SDS011;10027;51.066;13.768;2022-11-04T11:18:37;5.37;;;3.00;;
19739;SDS011;10027;51.066;13.768;2022-11-04T11:23:43;5.17;;;3.10;;
19739;SDS011;10027;51.066;13.768;2022-11-04T11:26:13;5.37;;;3.10;;
19739;SDS011;10027;51.066;13.768;2022-11-04T11:28:46;5.63;;;3.27;;
19739;SDS011;10027;51.066;13.768;2022-11-04T11:31:17;6.70;;;3.90;;
19739;SDS011;10027;51.066;13.768;2022-11-04T11:33:53;5.00;;;3.70;;
19739;SDS011;10027;51.066;13.768;2022-11-04T11:36:25;5.97;;;3.40;;
19739;SDS011;10027;51.066;13.768;2022-11-04T11:38:58;4.30;;;3.03;;
19739;SDS011;10027;51.066;13.768;2022-11-04T11:41:31;5.53;;;3.60;;
19739;SDS011;10027;51.066;13.768;2022-11-04T11:44:03;5.67;;;3.27;;
19739;SDS011;10027;51.066;13.768;2022-11-04T11:46:31;4.30;;;3.10;;
19739;SDS011;10027;51.066;13.768;2022-11-04T11:49:02;5.87;;;3.50;;
19739;SDS011;10027;51.066;13.768;2022-11-04T11:51:31;4.60;;;2.80;;
19739;SDS011;10027;51.066;13.768;2022-11-04T11:54:06;4.20;;;2.83;;
19739;SDS011;10027;51.066;13.768;2022-11-04T11:56:40;4.17;;;2.77;;
19739;SDS011;10027;51.066;13.768;2022-11-04T12:04:50;4.30;;;3.10;;
19739;SDS011;10027;51.066;13.768;2022-11-04T12:07:52;3.30;;;2.90;;
19739;SDS011;10027;51.066;13.768;2022-11-04T12:10:44;3.43;;;2.90;;
19739;SDS011;10027;51.066;13.768;2022-11-04T12:21:13;3.87;;;2.80;;
19739;SDS011;10027;51.066;13.768;2022-11-04T12:42:09;4.20;;;2.90;;
19739;SDS011;10027;51.066;13.768;2022-11-04T12:52:37;7.57;;;4.27;;
19739;SDS011;10027;51.066;13.768;2022-11-04T13:00:23;4.37;;;3.03;;
19739;SDS011;10027;51.066;13.768;2022-11-04T13:08:20;4.53;;;3.30;;
19739;SDS011;10027;51.066;13.768;2022-11-04T13:10:53;4.20;;;3.03;;
19739;SDS011;10027;51.066;13.768;2022-11-04T13:13:23;3.90;;;3.10;;
19739;SDS011;10027;51.066;13.768;2022-11-04T13:15:56;3.80;;;3.10;;
19739;SDS011;10027;51.066;13.768;2022-11-04T13:18:25;4.10;;;3.37;;
19739;SDS011;10027;51.066;13.768;2022-11-04T13:21:00;5.33;;;3.43;;
19739;SDS011;10027;51.066;13.768;2022-11-04T13:23:36;6.13;;;3.40;;
19739;SDS011;10027;51.066;13.768;2022-11-04T13:26:05;5.40;;;3.50;;
19739;SDS011;10027;51.066;13.768;2022-11-04T13:28:36;4.53;;;3.17;;
19739;SDS011;10027;51.066;13.768;2022-11-04T13:33:48;5.90;;;3.60;;
19739;SDS011;10027;51.066;13.768;2022-11-04T13:36:29;8.30;;;3.90;;
19739;SDS011;10027;51.066;13.768;2022-11-04T13:39:01;5.40;;;3.73;;
19739;SDS011;10027;51.066;13.768;2022-11-04T13:44:22;6.00;;;3.93;;
19739;SDS011;10027;51.066;13.768;2022-11-04T13:46:52;5.47;;;3.87;;
19739;SDS011;10027;51.066;13.768;2022-11-04T13:49:24;5.23;;;3.50;;
19739;SDS011;10027;51.066;13.768;2022-11-04T13:51:59;4.97;;;3.53;;
19739;SDS011;10027;51.066;13.768;2022-11-04T13:59:31;4.47;;;3.20;;
19739;SDS011;10027;51.066;13.768;2022-11-04T14:02:21;3.70;;;2.97;;
19739;SDS011;10027;51.066;13.768;2022-11-04T14:04:49;4.27;;;3.03;;
19739;SDS011;10027;51.066;13.768;2022-11-04T14:07:16;4.97;;;2.87;;
19739;SDS011;10027;51.066;13.768;2022-11-04T14:22:30;6.27;;;3.20;;
19739;SDS011;10027;51.066;13.768;2022-11-04T14:25:00;8.43;;;5.00;;
19739;SDS011;10027;51.066;13.768;2022-11-04T14:27:38;8.83;;;5.23;;
19739;SDS011;10027;51.066;13.768;2022-11-04T14:30:06;6.90;;;4.17;;
19739;SDS011;10027;51.066;13.768;2022-11-04T14:32:53;6.33;;;3.93;;
19739;SDS011;10027;51.066;13.768;2022-11-04T14:35:22;5.07;;;4.10;;
19739;SDS011;10027;51.066;13.768;2022-11-04T14:37:51;6.17;;;4.20;;
19739;SDS011;10027;51.066;13.768;2022-11-04T14:40:25;6.70;;;4.50;;
19739;SDS011;10027;51.066;13.768;2022-11-04T14:42:53;7.23;;;4.50;;
19739;SDS011;10027;51.066;13.768;2022-11-04T14:45:22;7.50;;;5.03;;
19739;SDS011;10027;51.066;13.768;2022-11-04T14:47:51;9.20;;;5.60;;
19739;SDS011;10027;51.066;13.768;2022-11-04T14:50:20;8.90;;;5.40;;
19739;SDS011;10027;51.066;13.768;2022-11-04T14:52:54;6.43;;;4.90;;
19739;SDS011;10027;51.066;13.768;2022-11-04T14:55:23;7.90;;;5.53;;
19739;SDS011;10027;51.066;13.768;2022-11-04T14:57:52;6.70;;;4.87;;
19739;SDS011;10027;51.066;13.768;2022-11-04T15:05:57;6.67;;;4.90;;
19739;SDS011;10027;51.066;13.768;2022-11-04T15:11:15;6.67;;;4.93;;
19739;SDS011;10027;51.066;13.768;2022-11-04T15:13:47;8.57;;;4.83;;
19739;SDS011;10027;51.066;13.768;2022-11-04T15:16:21;7.47;;;4.50;;
19739;SDS011;10027;51.066;13.768;2022-11-04T15:18:49;6.80;;;4.60;;
19739;SDS011;10027;51.066;13.768;2022-11-04T15:21:17;6.07;;;4.53;;
19739;SDS011;10027;51.066;13.768;2022-11-04T15:23:45;6.23;;;4.40;;
19739;SDS011;10027;51.066;13.768;2022-11-04T15:26:17;6.70;;;4.30;;
19739;SDS011;10027;51.066;13.768;2022-11-04T15:28:53;6.50;;;4.17;;
19739;SDS011;10027;51.066;13.768;2022-11-04T15:31:22;6.30;;;4.53;;
19739;SDS011;10027;51.066;13.768;2022-11-04T15:33:56;5.67;;;4.17;;
19739;SDS011;10027;51.066;13.768;2022-11-04T15:36:32;6.87;;;4.07;;
19739;SDS011;10027;51.066;13.768;2022-11-04T15:41:32;5.20;;;3.83;;
19739;SDS011;10027;51.066;13.768;2022-11-04T15:44:20;8.37;;;4.00;;
19739;SDS011;10027;51.066;13.768;2022-11-04T15:46:49;5.97;;;4.17;;
19739;SDS011;10027;51.066;13.768;2022-11-04T15:49:19;8.57;;;4.10;;
19739;SDS011;10027;51.066;13.768;2022-11-04T15:51:46;7.00;;;3.97;;
19739;SDS011;10027;51.066;13.768;2022-11-04T15:54:18;6.10;;;4.23;;
19739;SDS011;10027;51.066;13.768;2022-11-04T15:56:47;7.20;;;4.30;;
19739;SDS011;10027;51.066;13.768;2022-11-04T15:59:17;6.43;;;3.93;;
19739;SDS011;10027;51.066;13.768;2022-11-04T16:01:47;6.03;;;4.40;;
19739;SDS011;10027;51.066;13.768;2022-11-04T16:04:15;9.07;;;4.37;;
19739;SDS011;10027;51.066;13.768;2022-11-04T16:06:43;6.87;;;4.80;;
19739;SDS011;10027;51.066;13.768;2022-11-04T16:09:20;9.93;;;5.43;;
19739;SDS011;10027;51.066;13.768;2022-11-04T16:12:04;7.10;;;5.23;;
19739;SDS011;10027;51.066;13.768;2022-11-04T16:14:31;9.53;;;5.83;;
19739;SDS011;10027;51.066;13.768;2022-11-04T16:16:58;7.77;;;5.83;;
19739;SDS011;10027;51.066;13.768;2022-11-04T16:19:26;7.47;;;5.83;;
19739;SDS011;10027;51.066;13.768;2022-11-04T16:22:01;8.27;;;5.60;;
19739;SDS011;10027;51.066;13.768;2022-11-04T16:24:30;8.10;;;5.37;;
19739;SDS011;10027;51.066;13.768;2022-11-04T16:26:57;9.33;;;6.00;;
19739;SDS011;10027;51.066;13.768;2022-11-04T16:29:31;7.57;;;6.13;;
19739;SDS011;10027;51.066;13.768;2022-11-04T16:32:04;9.03;;;5.80;;
19739;SDS011;10027;51.066;13.768;2022-11-04T16:34:32;10.70;;;6.00;;
19739;SDS011;10027;51.066;13.768;2022-11-04T16:36:59;9.50;;;6.67;;
19739;SDS011;10027;51.066;13.768;2022-11-04T16:39:26;10.17;;;6.50;;
19739;SDS011;10027;51.066;13.768;2022-11-04T16:41:53;10.13;;;6.10;;
19739;SDS011;10027;51.066;13.768;2022-11-04T16:44:22;10.43;;;6.40;;
19739;SDS011;10027;51.066;13.768;2022-11-04T16:46:49;10.40;;;7.03;;
19739;SDS011;10027;51.066;13.768;2022-11-04T16:49:18;12.17;;;6.37;;
19739;SDS011;10027;51.066;13.768;2022-11-04T16:51:46;7.97;;;5.97;;
19739;SDS011;10027;51.066;13.768;2022-11-04T16:54:14;11.93;;;6.93;;
19739;SDS011;10027;51.066;13.768;2022-11-04T16:56:41;11.07;;;7.10;;
19739;SDS011;10027;51.066;13.768;2022-11-04T16:59:10;9.30;;;6.70;;